createdAt,value
2024-03-09T00:00:57.272Z,4.23
2024-03-09T00:03:32.259Z,4.22
2024-03-09T00:06:02.217Z,4.22
2024-03-09T00:08:29.832Z,3.77
2024-03-09T00:10:59.572Z,3.77
2024-03-09T00:13:30.407Z,4.20
2024-03-09T00:16:00.827Z,4.17
2024-03-09T00:18:36.700Z,4.15
2024-03-09T00:21:10.742Z,4.12
2024-03-09T00:23:38.486Z,4.10
2024-03-09T00:26:09.119Z,4.07
2024-03-09T00:28:40.407Z,4.04
2024-03-09T00:31:08.056Z,4.03
2024-03-09T00:33:36.823Z,4.01
2024-03-09T00:36:05.165Z,4.02
2024-03-09T00:38:35.485Z,3.88
2024-03-09T00:41:03.473Z,3.97
2024-03-09T00:43:32.631Z,3.93
2024-03-09T00:46:00.261Z,3.88
2024-03-09T00:48:28.605Z,3.68
2024-03-09T00:50:56.497Z,3.90
2024-03-09T00:53:24.148Z,3.84
2024-03-09T00:55:53.594Z,3.81
2024-03-09T00:58:23.407Z,3.68
2024-03-09T01:00:53.174Z,3.35
2024-03-09T01:03:46.788Z,3.71
2024-03-09T01:06:16.598Z,3.70
2024-03-09T01:09:09.335Z,3.64
2024-03-09T01:11:37.540Z,3.61
2024-03-09T01:14:05.436Z,3.59
2024-03-09T01:16:34.495Z,3.49
2024-03-09T01:19:02.302Z,3.52
2024-03-09T01:21:30.868Z,3.51
2024-03-09T01:24:25.356Z,3.49
2024-03-09T01:26:54.043Z,3.47
2024-03-09T01:29:23.566Z,3.43
2024-03-09T01:31:53.921Z,3.40
2024-03-09T01:34:21.720Z,3.35
2024-03-09T01:36:49.943Z,3.35
2024-03-09T01:39:18.539Z,3.07
2024-03-09T01:41:46.660Z,3.31
2024-03-09T01:44:16.027Z,3.29
2024-03-09T01:47:11.080Z,3.27
2024-03-09T01:49:39.083Z,3.25
2024-03-09T01:52:09.008Z,3.24
2024-03-09T01:54:41.206Z,3.23
2024-03-09T01:57:15.069Z,2.99
2024-03-09T01:59:48.677Z,3.04
2024-03-09T02:02:18.312Z,3.14
2024-03-09T02:04:47.878Z,3.16
2024-03-09T02:07:17.990Z,3.19
2024-03-09T02:09:48.047Z,3.21
2024-03-09T02:12:19.122Z,3.18
2024-03-09T02:14:48.117Z,3.15
2024-03-09T02:17:18.133Z,3.13
2024-03-09T02:19:46.284Z,3.13
2024-03-09T02:22:19.458Z,3.07
2024-03-09T02:24:55.980Z,3.14
2024-03-09T02:27:27.817Z,3.13
2024-03-09T02:29:55.506Z,2.40
2024-03-09T02:32:23.626Z,3.02
2024-03-09T02:38:10.308Z,2.86
2024-03-09T02:40:39.730Z,2.80
2024-03-09T02:43:09.353Z,2.77
2024-03-09T02:45:44.043Z,2.59
2024-03-09T02:48:13.784Z,2.65
2024-03-09T02:50:41.731Z,2.62
2024-03-09T02:53:09.413Z,2.64
2024-03-09T02:55:38.644Z,2.60
2024-03-09T02:58:07.718Z,2.59
2024-03-09T03:00:38.684Z,2.56
2024-03-09T03:03:24.621Z,1.82
2024-03-09T03:05:54.184Z,2.53
2024-03-09T03:08:22.308Z,2.53
2024-03-09T03:10:50.240Z,2.51
2024-03-09T03:13:20.108Z,2.51
2024-03-09T03:15:48.564Z,2.51
2024-03-09T03:18:16.256Z,2.25
2024-03-09T03:20:44.204Z,2.52
2024-03-09T03:23:12.306Z,2.47
2024-03-09T03:25:41.033Z,2.47
2024-03-09T03:28:09.326Z,2.47
2024-03-09T03:31:02.857Z,2.48
2024-03-09T03:33:32.283Z,2.49
2024-03-09T03:36:02.976Z,2.43
2024-03-09T03:38:36.319Z,2.49
2024-03-09T03:41:07.933Z,1.93
2024-03-09T03:43:36.158Z,2.32
2024-03-09T03:46:06.878Z,2.43
2024-03-09T03:48:35.127Z,2.41
2024-03-09T03:51:02.761Z,2.35
2024-03-09T03:53:30.466Z,2.35
2024-03-09T03:56:00.299Z,2.31
2024-03-09T03:58:29.310Z,2.43
2024-03-09T04:00:57.522Z,2.43
2024-03-09T04:03:30.466Z,2.40
2024-03-09T04:06:00.124Z,2.10
2024-03-09T04:08:28.522Z,2.37
2024-03-09T04:10:56.826Z,2.36
2024-03-09T04:13:26.059Z,2.01
2024-03-09T04:15:57.451Z,2.32
2024-03-09T04:18:31.847Z,2.32
2024-03-09T04:21:03.304Z,2.32
2024-03-09T04:23:31.422Z,2.34
2024-03-09T04:25:59.589Z,1.25
2024-03-09T04:28:32.520Z,2.32
2024-03-09T04:31:01.125Z,2.30
2024-03-09T04:33:31.836Z,2.23
2024-03-09T04:36:00.399Z,2.26
2024-03-09T04:38:28.265Z,2.24
2024-03-09T04:40:56.061Z,2.16
2024-03-09T04:43:24.868Z,2.20
2024-03-09T04:45:57.085Z,2.19
2024-03-09T04:48:26.044Z,1.93
2024-03-09T04:50:56.477Z,2.22
2024-03-09T04:56:18.333Z,2.19
2024-03-09T04:58:46.026Z,2.21
2024-03-09T05:01:14.472Z,1.95
2024-03-09T05:03:42.692Z,2.15
2024-03-09T05:06:14.148Z,2.06
2024-03-09T05:08:45.030Z,2.13
2024-03-09T05:11:13.942Z,2.09
2024-03-09T05:13:42.088Z,2.10
2024-03-09T05:16:12.244Z,2.10
2024-03-09T05:19:12.641Z,2.11
2024-03-09T05:21:45.299Z,2.01
2024-03-09T05:24:13.070Z,2.15
2024-03-09T05:26:43.691Z,2.18
2024-03-09T05:29:13.863Z,2.24
2024-03-09T05:31:42.171Z,2.23
2024-03-09T05:34:12.297Z,2.27
2024-03-09T05:36:41.504Z,2.35
2024-03-09T05:39:12.150Z,2.36
2024-03-09T05:41:39.870Z,2.35
2024-03-09T05:44:09.481Z,2.32
2024-03-09T05:46:38.620Z,2.34
2024-03-09T05:49:07.048Z,2.22
2024-03-09T05:51:35.214Z,2.38
2024-03-09T05:54:05.860Z,1.88
2024-03-09T05:56:33.985Z,2.25
2024-03-09T05:59:01.794Z,2.40
2024-03-09T06:01:29.633Z,2.39
2024-03-09T06:04:00.504Z,2.40
2024-03-09T06:06:28.178Z,2.41
2024-03-09T06:08:59.690Z,2.50
2024-03-09T06:11:29.036Z,2.38
2024-03-09T06:13:57.612Z,2.59
2024-03-09T06:16:25.581Z,2.28
2024-03-09T06:18:54.069Z,2.63
2024-03-09T06:21:23.343Z,2.64
2024-03-09T06:24:16.986Z,2.74
2024-03-09T06:26:46.131Z,2.63
2024-03-09T06:29:14.244Z,2.81
2024-03-09T06:31:44.750Z,2.81
2024-03-09T06:34:12.498Z,2.95
2024-03-09T06:36:40.794Z,2.77
2024-03-09T06:39:08.758Z,3.07
2024-03-09T06:41:37.464Z,2.97
2024-03-09T06:44:10.046Z,3.08
2024-03-09T06:47:02.038Z,2.97
2024-03-09T06:49:31.324Z,3.43
2024-03-09T06:51:59.648Z,3.51
2024-03-09T06:54:30.651Z,3.49
2024-03-09T06:56:58.655Z,3.72
2024-03-09T06:59:27.734Z,3.66
2024-03-09T07:01:58.774Z,3.78
2024-03-09T07:04:27.053Z,3.87
2024-03-09T07:06:54.988Z,3.86
2024-03-09T07:09:23.769Z,3.79
2024-03-09T07:11:54.367Z,3.70
2024-03-09T07:14:22.664Z,4.04
2024-03-09T07:16:52.796Z,4.25
2024-03-09T07:19:21.944Z,4.11
2024-03-09T07:21:49.972Z,4.31
2024-03-09T07:24:44.155Z,4.46
2024-03-09T07:27:13.314Z,4.56
2024-03-09T07:29:42.690Z,4.61
2024-03-09T07:32:13.907Z,4.62
2024-03-09T07:34:41.907Z,4.64
2024-03-09T07:37:09.749Z,4.44
2024-03-09T07:39:39.208Z,4.73
2024-03-09T07:42:37.138Z,4.78
2024-03-09T07:45:08.117Z,4.50
2024-03-09T07:47:37.491Z,4.74
2024-03-09T07:50:05.394Z,4.77
2024-03-09T07:52:34.115Z,4.84
2024-03-09T07:55:01.753Z,4.98
2024-03-09T07:57:29.594Z,5.16
2024-03-09T07:59:57.435Z,5.06
2024-03-09T08:02:26.252Z,5.47
2024-03-09T08:04:55.562Z,5.74
2024-03-09T08:07:23.678Z,5.50
2024-03-09T08:09:51.813Z,6.04
2024-03-09T08:12:19.807Z,6.12
2024-03-09T08:14:50.042Z,6.17
2024-03-09T08:17:18.192Z,6.41
2024-03-09T08:19:46.645Z,6.46
2024-03-09T08:22:16.033Z,6.54
2024-03-09T08:24:43.698Z,6.55
2024-03-09T08:27:11.354Z,6.50
2024-03-09T08:29:39.238Z,6.73
2024-03-09T08:32:07.956Z,7.04
2024-03-09T08:34:36.061Z,7.54
2024-03-09T08:37:10.000Z,7.16
2024-03-09T08:39:43.420Z,8.09
2024-03-09T08:42:12.907Z,8.21
2024-03-09T08:44:41.074Z,8.03
2024-03-09T08:47:09.383Z,7.88
2024-03-09T08:49:37.533Z,7.60
2024-03-09T08:52:06.145Z,7.44
2024-03-09T08:54:34.724Z,7.17
2024-03-09T08:57:04.356Z,7.19
2024-03-09T08:59:34.093Z,7.01
2024-03-09T09:02:03.080Z,7.12
2024-03-09T09:04:30.760Z,6.80
2024-03-09T09:06:58.641Z,7.30
2024-03-09T09:09:26.777Z,7.36
2024-03-09T09:11:55.742Z,7.40
2024-03-09T09:14:25.497Z,7.44
2024-03-09T09:16:54.673Z,7.35
2024-03-09T09:19:26.039Z,7.52
2024-03-09T09:21:56.485Z,7.55
2024-03-09T09:24:25.552Z,7.56
2024-03-09T09:26:54.338Z,7.63
2024-03-09T09:29:22.305Z,7.67
2024-03-09T09:31:51.422Z,7.76
2024-03-09T09:34:19.239Z,7.34
2024-03-09T09:36:49.017Z,7.83
2024-03-09T09:39:22.609Z,8.16
2024-03-09T09:41:52.075Z,8.14
2024-03-09T09:44:21.574Z,7.63
2024-03-09T09:46:49.217Z,8.32
2024-03-09T09:49:19.365Z,8.37
2024-03-09T09:51:49.514Z,8.35
2024-03-09T09:54:17.928Z,8.51
2024-03-09T09:56:47.601Z,8.57
2024-03-09T09:59:18.475Z,8.61
2024-03-09T10:01:47.865Z,8.68
2024-03-09T10:04:17.354Z,8.35
2024-03-09T10:06:49.027Z,8.71
2024-03-09T10:09:28.813Z,8.78
2024-03-09T10:11:58.068Z,8.82
2024-03-09T10:14:30.067Z,8.85
2024-03-09T10:17:02.591Z,8.81
2024-03-09T10:19:31.865Z,8.93
2024-03-09T10:22:02.445Z,9.00
2024-03-09T10:24:30.027Z,9.13
2024-03-09T10:27:07.862Z,9.04
2024-03-09T10:29:35.811Z,9.34
2024-03-09T10:32:09.196Z,9.31
2024-03-09T10:34:49.372Z,9.48
2024-03-09T10:37:25.141Z,9.16
2024-03-09T10:39:53.152Z,9.58
2024-03-09T10:42:22.403Z,9.72
2024-03-09T10:44:54.416Z,9.87
2024-03-09T10:47:26.598Z,9.88
2024-03-09T10:50:02.508Z,9.70
2024-03-09T10:52:33.939Z,10.27
2024-03-09T10:55:08.087Z,10.33
2024-03-09T10:57:36.607Z,10.48
2024-03-09T11:00:05.202Z,10.63
2024-03-09T11:02:36.620Z,10.71
2024-03-09T11:05:06.670Z,10.84
2024-03-09T11:07:37.353Z,10.92
2024-03-09T11:10:06.975Z,11.08
2024-03-09T11:12:37.727Z,10.83
2024-03-09T11:15:09.623Z,11.08
2024-03-09T11:17:37.482Z,11.09
2024-03-09T11:20:08.654Z,10.64
2024-03-09T11:22:47.756Z,11.14
2024-03-09T11:25:16.330Z,10.94
2024-03-09T11:27:44.824Z,11.19
2024-03-09T11:30:16.418Z,11.25
2024-03-09T11:32:44.661Z,11.21
2024-03-09T11:35:33.514Z,11.35
2024-03-09T11:38:13.345Z,11.55
2024-03-09T11:40:41.989Z,11.55
2024-03-09T11:43:13.118Z,11.52
2024-03-09T11:45:41.644Z,11.62
2024-03-09T11:48:10.321Z,11.57
2024-03-09T11:50:43.740Z,11.93
2024-03-09T11:53:13.129Z,11.99
2024-03-09T11:55:42.943Z,12.00
2024-03-09T11:58:11.460Z,12.04
2024-03-09T12:00:39.059Z,12.06
2024-03-09T12:03:15.525Z,12.28
2024-03-09T12:05:45.419Z,12.31
2024-03-09T12:08:15.254Z,12.45
2024-03-09T12:10:47.370Z,12.41
2024-03-09T12:13:15.212Z,12.51
2024-03-09T12:15:44.886Z,12.60
2024-03-09T12:18:14.635Z,12.75
2024-03-09T12:20:48.682Z,12.80
2024-03-09T12:23:20.820Z,12.86
2024-03-09T12:25:48.816Z,12.90
2024-03-09T12:28:17.985Z,12.91
2024-03-09T12:30:52.052Z,12.98
2024-03-09T12:33:20.382Z,12.80
2024-03-09T12:35:48.688Z,13.09
2024-03-09T12:38:21.680Z,13.03
2024-03-09T12:40:53.067Z,12.98
2024-03-09T12:43:21.826Z,13.13
2024-03-09T12:45:53.357Z,13.22
2024-03-09T12:48:24.104Z,13.28
2024-03-09T12:50:56.656Z,13.33
2024-03-09T12:53:25.637Z,13.27
2024-03-09T12:55:55.007Z,13.47
2024-03-09T12:58:22.690Z,13.50
2024-03-09T13:00:55.300Z,13.67
2024-03-09T13:03:25.730Z,13.82
2024-03-09T13:05:53.690Z,13.64
2024-03-09T13:08:25.231Z,13.82
2024-03-09T13:10:54.415Z,13.46
2024-03-09T13:13:23.160Z,13.84
2024-03-09T13:15:56.349Z,13.88
2024-03-09T13:18:25.174Z,13.80
2024-03-09T13:20:55.317Z,13.87
2024-03-09T13:23:23.387Z,13.80
2024-03-09T13:25:51.144Z,13.51
2024-03-09T13:28:20.174Z,13.81
2024-03-09T13:30:49.877Z,13.69
2024-03-09T13:33:17.750Z,13.98
2024-03-09T13:35:46.134Z,14.02
2024-03-09T13:38:13.920Z,14.07
2024-03-09T13:40:42.079Z,14.08
2024-03-09T13:43:09.714Z,14.21
2024-03-09T13:45:42.023Z,14.29
2024-03-09T13:48:12.310Z,14.30
2024-03-09T13:50:40.023Z,14.60
2024-03-09T13:53:07.338Z,14.94
2024-03-09T13:55:35.989Z,15.12
2024-03-09T13:58:05.601Z,14.98
2024-03-09T14:00:37.208Z,14.41
2024-03-09T14:03:08.386Z,14.51
2024-03-09T14:05:37.775Z,14.28
2024-03-09T14:08:09.440Z,14.00
2024-03-09T14:10:39.330Z,13.82
2024-03-09T14:13:09.674Z,13.45
2024-03-09T14:15:38.947Z,13.77
2024-03-09T14:18:15.277Z,13.37
2024-03-09T14:20:43.470Z,13.47
2024-03-09T14:23:14.678Z,13.39
2024-03-09T14:25:43.825Z,13.35
2024-03-09T14:28:12.705Z,13.64
2024-03-09T14:30:42.511Z,13.72
2024-03-09T14:33:14.226Z,13.82
2024-03-09T14:35:42.502Z,13.27
2024-03-09T14:38:12.457Z,14.10
2024-03-09T14:40:40.358Z,14.23
2024-03-09T14:43:10.470Z,14.19
2024-03-09T14:45:39.178Z,14.08
2024-03-09T14:48:10.446Z,14.45
2024-03-09T14:50:40.274Z,14.59
2024-03-09T14:53:15.109Z,14.63
2024-03-09T14:55:47.516Z,14.52
2024-03-09T14:58:17.788Z,14.70
2024-03-09T15:00:58.470Z,14.79
2024-03-09T15:03:33.664Z,14.67
2024-03-09T15:06:03.338Z,15.08
2024-03-09T15:08:32.811Z,14.95
2024-03-09T15:11:11.063Z,14.82
2024-03-09T15:13:40.596Z,14.58
2024-03-09T15:16:10.236Z,14.18
2024-03-09T15:18:39.132Z,14.22
2024-03-09T15:21:16.951Z,14.09
2024-03-09T15:23:45.133Z,13.99
2024-03-09T15:26:12.869Z,13.89
2024-03-09T15:28:41.895Z,13.78
2024-03-09T15:31:11.492Z,13.78
2024-03-09T15:33:39.589Z,13.76
2024-03-09T15:36:12.414Z,13.38
2024-03-09T15:38:42.674Z,13.74
2024-03-09T15:41:15.563Z,13.78
2024-03-09T15:43:43.670Z,13.75
2024-03-09T15:46:13.417Z,13.53
2024-03-09T15:48:41.580Z,13.87
2024-03-09T15:51:12.611Z,13.88
2024-03-09T15:53:41.731Z,13.88
2024-03-09T15:56:12.622Z,13.87
2024-03-09T15:58:42.657Z,13.83
2024-03-09T16:01:11.152Z,13.75
2024-03-09T16:03:40.928Z,13.79
2024-03-09T16:06:11.267Z,13.75
2024-03-09T16:08:40.344Z,13.55
2024-03-09T16:11:08.020Z,13.39
2024-03-09T16:13:36.917Z,13.45
2024-03-09T16:16:09.263Z,13.64
2024-03-09T16:18:37.704Z,13.61
2024-03-09T16:21:11.256Z,13.51
2024-03-09T16:23:45.778Z,13.32
2024-03-09T16:26:13.786Z,13.55
2024-03-09T16:28:43.521Z,13.46
2024-03-09T16:31:12.581Z,13.38
2024-03-09T16:33:41.380Z,13.32
2024-03-09T16:36:11.270Z,13.04
2024-03-09T16:38:40.641Z,13.20
2024-03-09T16:41:10.510Z,13.22
2024-03-09T16:43:39.785Z,12.87
2024-03-09T16:46:12.874Z,13.01
2024-03-09T16:48:40.617Z,13.03
2024-03-09T16:51:09.828Z,12.91
2024-03-09T16:53:41.856Z,12.49
2024-03-09T16:56:12.253Z,12.90
2024-03-09T16:58:41.144Z,12.62
2024-03-09T17:01:09.709Z,12.80
2024-03-09T17:03:37.730Z,12.55
2024-03-09T17:06:08.535Z,12.70
2024-03-09T17:08:37.324Z,12.58
2024-03-09T17:11:11.893Z,12.68
2024-03-09T17:13:41.935Z,12.26
2024-03-09T17:16:11.680Z,12.51
2024-03-09T17:18:41.417Z,12.25
2024-03-09T17:21:09.040Z,11.57
2024-03-09T17:23:36.874Z,12.46
2024-03-09T17:26:05.420Z,12.39
2024-03-09T17:28:35.568Z,12.00
2024-03-09T17:31:09.250Z,12.25
2024-03-09T17:33:38.680Z,12.19
2024-03-09T17:36:10.100Z,12.16
2024-03-09T17:38:38.153Z,12.10
2024-03-09T17:41:05.898Z,12.07
2024-03-09T17:43:35.220Z,12.04
2024-03-09T17:46:05.085Z,11.08
2024-03-09T17:48:33.025Z,11.73
2024-03-09T17:51:01.093Z,11.91
2024-03-09T17:53:31.107Z,11.91
2024-03-09T17:56:00.999Z,11.80
2024-03-09T17:58:29.621Z,11.92
2024-03-09T18:00:59.132Z,11.91
2024-03-09T18:03:27.146Z,11.89
2024-03-09T18:05:57.907Z,11.40
2024-03-09T18:08:26.648Z,11.79
2024-03-09T18:10:56.255Z,11.86
2024-03-09T18:13:24.251Z,11.84
2024-03-09T18:15:52.328Z,11.53
2024-03-09T18:18:22.757Z,11.86
2024-03-09T18:20:52.009Z,11.83
2024-03-09T18:23:20.305Z,11.70
2024-03-09T18:25:53.003Z,11.53
2024-03-09T18:28:23.212Z,11.28
2024-03-09T18:30:52.121Z,11.41
2024-03-09T18:33:22.973Z,11.52
2024-03-09T18:35:51.130Z,11.22
2024-03-09T18:38:20.030Z,11.48
2024-03-09T18:40:48.576Z,11.33
2024-03-09T18:43:17.243Z,11.47
2024-03-09T18:45:47.691Z,11.46
2024-03-09T18:48:16.436Z,11.27
2024-03-09T18:50:46.020Z,11.44
2024-03-09T18:53:13.813Z,11.39
2024-03-09T18:55:43.918Z,11.29
2024-03-09T18:58:11.983Z,11.31
2024-03-09T19:00:39.840Z,11.24
2024-03-09T19:03:08.500Z,11.18
2024-03-09T19:05:36.203Z,10.99
2024-03-09T19:08:10.198Z,11.05
2024-03-09T19:10:38.069Z,10.85
2024-03-09T19:13:06.971Z,10.61
2024-03-09T19:15:39.188Z,10.80
2024-03-09T19:18:07.104Z,10.70
2024-03-09T19:20:36.394Z,10.57
2024-03-09T19:23:06.761Z,10.64
2024-03-09T19:25:36.946Z,10.57
2024-03-09T19:28:05.008Z,10.53
2024-03-09T19:30:33.671Z,9.99
2024-03-09T19:33:01.678Z,9.97
2024-03-09T19:35:29.865Z,9.99
2024-03-09T19:37:59.633Z,10.33
2024-03-09T19:40:29.705Z,10.05
2024-03-09T19:43:02.094Z,10.26
2024-03-09T19:45:31.961Z,9.97
2024-03-09T19:48:00.749Z,10.22
2024-03-09T19:50:30.256Z,10.15
2024-03-09T19:52:58.982Z,9.91
2024-03-09T19:55:30.879Z,10.05
2024-03-09T19:58:01.374Z,9.82
2024-03-09T20:00:33.385Z,10.13
2024-03-09T20:03:01.717Z,9.91
2024-03-09T20:05:30.700Z,10.09
2024-03-09T20:07:59.701Z,9.36
2024-03-09T20:10:30.506Z,9.89
2024-03-09T20:13:01.900Z,9.92
2024-03-09T20:15:30.160Z,9.88
2024-03-09T20:17:59.602Z,9.73
2024-03-09T20:20:29.750Z,9.80
2024-03-09T20:22:58.732Z,9.42
2024-03-09T20:25:28.871Z,9.75
2024-03-09T20:27:57.681Z,9.70
2024-03-09T20:30:27.768Z,9.30
2024-03-09T20:32:55.916Z,9.62
2024-03-09T20:35:25.315Z,9.56
2024-03-09T20:37:56.706Z,9.26
2024-03-09T20:43:22.675Z,9.40
2024-03-09T20:45:53.113Z,9.12
2024-03-09T20:48:21.048Z,9.36
2024-03-09T20:50:50.908Z,9.29
2024-03-09T20:53:31.691Z,9.20
2024-03-09T20:55:59.211Z,9.27
2024-03-09T20:58:27.862Z,9.26
2024-03-09T21:00:57.298Z,9.24
2024-03-09T21:03:27.143Z,9.28
2024-03-09T21:05:56.086Z,9.33
2024-03-09T21:08:24.207Z,9.34
2024-03-09T21:10:55.605Z,9.33
2024-03-09T21:13:24.246Z,9.33
2024-03-09T21:15:52.119Z,9.34
2024-03-09T21:18:23.974Z,9.32
2024-03-09T21:20:51.966Z,9.11
2024-03-09T21:23:19.911Z,9.39
2024-03-09T21:26:12.338Z,9.27
2024-03-09T21:28:43.163Z,9.34
2024-03-09T21:31:13.077Z,8.96
2024-03-09T21:33:44.794Z,9.28
2024-03-09T21:36:12.866Z,9.25
2024-03-09T21:38:41.339Z,9.22
2024-03-09T21:41:09.680Z,8.73
2024-03-09T21:43:38.868Z,9.22
2024-03-09T21:46:07.805Z,9.23
2024-03-09T21:48:35.952Z,8.60
2024-03-09T21:51:09.089Z,9.19
2024-03-09T21:53:39.087Z,8.76
2024-03-09T21:56:07.339Z,9.14
2024-03-09T21:58:36.857Z,9.01
2024-03-09T22:01:07.626Z,9.01
2024-03-09T22:03:35.931Z,9.05
2024-03-09T22:06:05.764Z,9.06
2024-03-09T22:08:35.447Z,8.86
2024-03-09T22:11:03.640Z,8.82
2024-03-09T22:13:31.424Z,9.12
2024-03-09T22:16:00.445Z,8.96
2024-03-09T22:18:29.928Z,8.96
2024-03-09T22:20:58.497Z,9.09
2024-03-09T22:23:27.893Z,9.03
2024-03-09T22:25:57.774Z,8.90
2024-03-09T22:28:25.946Z,8.94
2024-03-09T22:30:56.060Z,8.78
2024-03-09T22:33:24.692Z,8.86
2024-03-09T22:35:54.425Z,8.79
2024-03-09T22:38:22.260Z,8.65
2024-03-09T22:40:51.983Z,8.45
2024-03-09T22:43:20.973Z,8.71
2024-03-09T22:45:49.903Z,8.69
2024-03-09T22:48:17.508Z,8.66
2024-03-09T22:50:45.449Z,8.50
2024-03-09T22:53:15.662Z,8.64
2024-03-09T22:55:43.609Z,8.60
2024-03-09T22:58:12.587Z,8.55
2024-03-09T23:00:40.558Z,8.55
2024-03-09T23:03:09.239Z,8.53
2024-03-09T23:05:39.191Z,8.42
2024-03-09T23:08:08.763Z,8.49
2024-03-09T23:10:37.313Z,8.48
2024-03-09T23:13:07.948Z,8.43
2024-03-09T23:15:36.950Z,8.46
2024-03-09T23:18:05.644Z,8.33
2024-03-09T23:20:33.645Z,8.46
2024-03-09T23:23:02.249Z,8.39
2024-03-09T23:25:30.503Z,8.24
2024-03-09T23:27:58.861Z,8.37
2024-03-09T23:30:30.063Z,8.29
2024-03-09T23:33:00.934Z,8.33
2024-03-09T23:35:28.983Z,8.46
2024-03-09T23:37:57.208Z,8.49
2024-03-09T23:40:25.282Z,8.46
2024-03-09T23:42:53.123Z,8.41
2024-03-09T23:45:21.111Z,8.37
2024-03-09T23:47:49.976Z,8.19
2024-03-09T23:50:21.295Z,7.90
2024-03-09T23:52:49.802Z,8.23
2024-03-09T23:55:18.911Z,8.16
2024-03-09T23:57:49.153Z,8.09
